Time;durP1;ratioP1;P1;durP2;ratioP2;P2;SDS_P1;SDS_P2;PMS_P1;PMS_P2;Temp;Humidity;BMP_temperature;BMP_pressure;BME280_temperature;BME280_humidity;BME280_pressure;Samples;Min_cycle;Max_cycle;Signal;HPM_P1;HPM_P2
2022/11/16 06:41:54;;;;;;;;;4.50;1.00;;;;;9.98;100.00;99665.97;5853689;22;52013;-77
2022/11/16 06:44:20;;;;;;;;;0.50;0.50;;;;;9.52;100.00;99596.66;6235235;22;49764;-76
2022/11/16 06:46:45;;;;;;;;;4.25;1.00;;;;;9.64;100.00;99593.22;6208940;22;49636;-74
2022/11/16 06:49:10;;;;;;;;;2.00;2.00;;;;;10.60;100.00;99757.25;6208411;22;49650;-75
2022/11/16 06:51:36;;;;;;;;;1.75;1.75;;;;;10.08;100.00;99666.00;6234890;22;49680;-71
2022/11/16 06:54:01;;;;;;;;;2.25;1.00;;;;;10.45;100.00;99728.31;6209222;22;50416;-75
2022/11/16 06:56:28;;;;;;;;;0.75;0.75;;;;;10.34;100.00;99723.91;6171037;22;50074;-70
2022/11/16 06:58:55;;;;;;;;;0.00;0.00;;;;;10.32;100.00;99705.50;6227166;22;50145;-70
2022/11/16 07:01:21;;;;;;;;;0.25;0.25;;;;;10.71;100.00;99783.56;6229168;22;50033;-71
2022/11/16 07:03:46;;;;;;;;;3.00;1.00;;;;;10.18;100.00;99679.19;6228981;22;49801;-75
2022/11/16 07:06:13;;;;;;;;;0.50;0.50;;;;;10.53;100.00;99738.88;6226988;22;55450;-74
2022/11/16 07:08:38;;;;;;;;;0.00;0.00;;;;;10.80;100.00;99775.69;6228087;22;50194;-73
2022/11/16 07:11:06;;;;;;;;;0.75;0.75;;;;;9.70;100.00;99609.88;6228094;22;49891;-77
2022/11/16 07:13:32;;;;;;;;;1.25;1.00;;;;;10.56;100.00;99728.38;6222809;22;51463;-76
2022/11/16 07:16:05;;;;;;;;;1.00;1.00;;;;;10.85;100.00;99770.50;6226088;22;49676;-74
2022/11/16 07:18:37;;;;;;;;;0.25;0.00;;;;;10.37;100.00;99688.06;6226155;22;49859;-75
2022/11/16 07:21:08;;;;;;;;;2.00;1.00;;;;;10.92;100.00;99798.53;6227066;22;49878;-78
2022/11/16 07:23:34;;;;;;;;;0.25;0.00;;;;;9.72;100.00;99617.75;6227663;22;50907;-74
2022/11/16 07:26:00;;;;;;;;;1.50;1.25;;;;;9.41;100.00;99544.22;6224571;22;50320;-71
2022/11/16 07:28:28;;;;;;;;;0.75;0.75;;;;;11.00;100.00;99788.94;6225501;22;49748;-71
2022/11/16 07:30:53;;;;;;;;;2.25;1.75;;;;;10.62;100.00;99715.28;6226393;22;50309;-71
2022/11/16 07:33:19;;;;;;;;;2.00;2.00;;;;;11.10;100.00;99795.09;6223670;22;50799;-72
2022/11/16 07:35:44;;;;;;;;;2.00;2.00;;;;;10.42;100.00;99664.44;6223960;22;56848;-71
2022/11/16 07:38:10;;;;;;;;;3.75;1.00;;;;;9.38;100.00;99489.19;6226068;22;49757;-73
2022/11/16 07:40:35;;;;;;;;;1.00;1.00;;;;;9.90;100.00;99572.41;6227205;22;50346;-72
2022/11/16 07:43:01;;;;;;;;;7.75;2.75;;;;;11.08;100.00;99760.91;6226507;22;49743;-69
2022/11/16 07:45:26;;;;;;;;;1.00;1.00;;;;;10.75;100.00;99734.56;6228333;22;50023;-71
2022/11/16 07:47:52;;;;;;;;;3.75;1.75;;;;;9.30;100.00;99450.75;6227271;22;49678;-70
2022/11/16 07:50:18;;;;;;;;;2.00;0.75;;;;;11.15;100.00;99762.69;6226849;22;49824;-70
2022/11/16 07:52:46;;;;;;;;;2.00;2.00;;;;;10.60;100.00;99661.88;6226980;22;50111;-71
2022/11/16 07:55:12;;;;;;;;;3.00;3.00;;;;;9.71;100.00;99530.38;6226025;22;49826;-72
2022/11/16 07:57:37;;;;;;;;;1.00;0.00;;;;;10.15;100.00;99607.50;6226274;22;49658;-69
2022/11/16 08:00:04;;;;;;;;;3.00;1.00;;;;;11.45;100.00;99790.78;6228513;22;49928;-72
2022/11/16 08:02:29;;;;;;;;;4.75;3.75;;;;;11.27;100.00;99747.84;6227450;22;49734;-70
2022/11/16 08:04:55;;;;;;;;;1.75;1.75;;;;;11.58;100.00;99775.94;6226315;22;49758;-70
2022/11/16 08:07:20;;;;;;;;;2.75;2.75;;;;;11.58;100.00;99761.88;6228297;22;49654;-71
2022/11/16 08:09:46;;;;;;;;;2.75;1.00;;;;;11.71;100.00;99782.94;6200188;22;49972;-74
2022/11/16 08:12:12;;;;;;;;;3.75;2.00;;;;;11.55;100.00;99756.63;6227799;22;50142;-72
2022/11/16 08:14:37;;;;;;;;;2.00;2.00;;;;;11.66;100.00;99755.75;6227555;22;49829;-70
2022/11/16 08:17:04;;;;;;;;;3.75;3.75;;;;;11.18;100.00;99709.28;6228008;22;49657;-70
2022/11/16 08:19:29;;;;;;;;;4.00;2.00;;;;;11.87;100.00;99775.06;6226997;22;49939;-70
2022/11/16 08:21:55;;;;;;;;;3.00;1.75;;;;;11.92;100.00;99783.84;6226560;22;50819;-69
2022/11/16 08:24:21;;;;;;;;;4.00;3.00;;;;;11.93;100.00;99778.59;6199986;22;49646;-69
2022/11/16 08:26:47;;;;;;;;;1.50;1.50;;;;;11.97;100.00;99782.97;6229082;22;50393;-69
2022/11/16 08:29:14;;;;;;;;;2.00;2.00;;;;;11.73;100.00;99746.13;6226826;22;49749;-69
2022/11/16 08:31:43;;;;;;;;;1.50;1.00;;;;;11.84;100.00;99757.53;6230572;22;50261;-70
2022/11/16 08:34:09;;;;;;;;;2.00;1.25;;;;;11.37;100.00;99676.91;6227038;22;49567;-69
2022/11/16 08:36:34;;;;;;;;;3.50;2.00;;;;;12.00;100.00;99787.34;6227898;22;49974;-69
2022/11/16 08:39:02;;;;;;;;;1.00;1.00;;;;;11.80;100.00;99740.03;6226393;22;49684;-75
2022/11/16 08:41:28;;;;;;;;;2.00;1.00;;;;;12.03;100.00;99780.31;6225035;22;50995;-70
2022/11/16 08:43:53;;;;;;;;;0.00;0.00;;;;;11.63;100.00;99716.34;6226106;22;49871;-70
2022/11/16 08:46:19;;;;;;;;;3.00;1.75;;;;;11.78;100.00;99744.38;6226209;22;50248;-70
2022/11/16 08:48:45;;;;;;;;;3.75;2.75;;;;;11.67;100.00;99709.31;6225674;22;49910;-70
2022/11/16 08:51:16;;;;;;;;;3.25;2.50;;;;;11.17;100.00;99615.59;6198533;22;51501;-70
2022/11/16 08:53:42;;;;;;;;;2.50;1.75;;;;;12.11;100.00;99766.31;6225498;22;50079;-70
2022/11/16 08:56:12;;;;;;;;;1.50;1.50;;;;;11.28;100.00;99626.09;6225500;22;49962;-70
2022/11/16 08:58:38;;;;;;;;;4.25;1.00;;;;;12.23;100.00;99779.44;6224745;22;49996;-69
2022/11/16 09:01:12;;;;;;;;;0.75;0.25;;;;;12.22;100.00;99778.56;6225164;22;50818;-69
2022/11/16 09:03:38;;;;;;;;;2.50;2.50;;;;;12.25;100.00;99778.53;6227034;22;50049;-70
2022/11/16 09:06:05;;;;;;;;;2.00;2.00;;;;;12.13;100.00;99746.13;6227803;22;49749;-74
2022/11/16 09:08:31;;;;;;;;;3.00;1.00;;;;;12.31;100.00;99777.66;6227555;22;50105;-70
2022/11/16 09:10:56;;;;;;;;;1.25;0.75;;;;;12.38;100.00;99778.53;6228035;22;50391;-70
2022/11/16 09:13:22;;;;;;;;;3.75;2.75;;;;;11.30;100.00;99604.22;6228128;22;49748;-70
2022/11/16 09:15:53;;;;;;;;;2.00;2.00;;;;;12.47;100.00;99760.97;6227781;22;49941;-72
2022/11/16 09:18:19;;;;;;;;;1.50;1.50;;;;;11.81;100.00;99633.09;6201228;22;49931;-70
2022/11/16 09:20:44;;;;;;;;;2.50;2.00;;;;;12.59;100.00;99736.34;6226618;22;50233;-69
2022/11/16 09:23:10;;;;;;;;;2.00;2.00;;;;;12.47;100.00;99720.59;6228159;22;49796;-70
2022/11/16 09:25:35;;;;;;;;;3.00;1.25;;;;;12.86;100.00;99762.56;6227521;22;49961;-69
2022/11/16 09:28:00;;;;;;;;;1.50;1.50;;;;;12.68;100.00;99717.00;6229172;22;49787;-70
2022/11/16 09:30:26;;;;;;;;;1.00;1.00;;;;;12.92;100.00;99743.22;6228268;22;50700;-72
2022/11/16 09:32:51;;;;;;;;;1.50;1.50;;;;;13.13;100.00;99744.88;6200104;22;49692;-69
2022/11/16 09:35:16;;;;;;;;;2.50;1.25;;;;;13.03;100.00;99730.03;6228732;22;50102;-70
2022/11/16 09:37:42;;;;;;;;;1.00;1.00;;;;;13.38;100.00;99750.91;6227184;22;49620;-69
2022/11/16 09:40:10;;;;;;;;;1.50;1.50;;;;;13.40;100.00;99734.19;6227959;22;50279;-69
2022/11/16 09:42:51;;;;;;;;;3.00;3.00;;;;;13.02;100.00;99654.47;6224452;22;49805;-70
2022/11/16 09:45:25;;;;;;;;;2.00;0.75;;;;;13.57;100.00;99735.81;6227203;22;49665;-70
2022/11/16 09:47:58;;;;;;;;;2.00;0.25;;;;;13.33;100.00;99689.44;6227801;22;50435;-70
2022/11/16 09:50:26;;;;;;;;;1.75;1.75;;;;;13.54;100.00;99733.22;6228550;22;50334;-69
2022/11/16 09:52:56;;;;;;;;;2.75;2.50;;;;;13.13;100.00;99679.88;6227556;22;49918;-68
2022/11/16 09:55:32;;;;;;;;;2.25;2.00;;;;;13.45;100.00;99726.25;6227404;22;49847;-69
2022/11/16 09:58:02;;;;;;;;;1.25;1.00;;;;;13.43;100.00;99715.72;6229700;22;49772;-72
2022/11/16 10:00:29;;;;;;;;;5.50;2.50;;;;;12.79;100.00;99608.09;6228699;22;50869;-70
2022/11/16 10:03:02;;;;;;;;;2.00;1.75;;;;;13.38;100.00;99700.81;6227882;22;49761;-70
2022/11/16 10:05:52;;;;;;;;;4.00;2.00;;;;;13.75;100.00;99736.56;6228288;22;49695;-69
2022/11/16 10:08:42;;;;;;;;;1.00;1.00;;;;;13.82;100.00;99708.38;6229467;22;49900;-70
2022/11/16 10:11:30;;;;;;;;;0.00;0.00;;;;;14.13;100.00;99730.06;6227764;22;50264;-69
2022/11/16 10:14:30;;;;;;;;;3.25;1.00;;;;;14.15;100.00;99706.28;6226734;22;50054;-78
2022/11/16 10:17:18;;;;;;;;;2.00;2.00;;;;;14.40;100.00;99717.47;6225977;22;49647;-71
2022/11/16 10:20:14;;;;;;;;;2.50;0.00;;;;;14.60;100.00;99733.97;6225964;22;50043;-71
2022/11/16 10:22:52;;;;;;;;;1.00;1.00;;;;;14.67;100.00;99733.00;6226618;22;50571;-70
2022/11/16 10:25:21;;;;;;;;;0.50;0.50;;;;;14.47;100.00;99724.41;6227313;22;50062;-70
2022/11/16 10:27:57;;;;;;;;;1.00;1.00;;;;;13.38;100.00;99521.56;6226151;22;49689;-72
2022/11/16 10:30:22;;;;;;;;;1.50;0.00;;;;;14.71;100.00;99737.34;6228347;22;49866;-69
2022/11/16 10:33:00;;;;;;;;;3.25;3.25;;;;;14.77;100.00;99733.78;6226757;22;50352;-69
2022/11/16 10:35:41;;;;;;;;;0.75;0.75;;;;;14.73;100.00;99732.03;6228738;22;49769;-69
2022/11/16 10:38:13;;;;;;;;;2.75;1.00;;;;;14.69;100.00;99740.91;6227671;22;49706;-69
2022/11/16 10:40:40;;;;;;;;;2.00;1.00;;;;;14.41;99.99;99706.00;6227689;22;50351;-71
2022/11/16 10:43:27;;;;;;;;;3.00;2.00;;;;;13.52;99.63;99598.78;6226837;22;50802;-70
2022/11/16 10:45:58;;;;;;;;;3.75;2.75;;;;;14.53;100.00;99748.13;6226712;22;49864;-69
2022/11/16 10:48:30;;;;;;;;;1.00;1.00;;;;;14.52;98.91;99725.25;6227960;22;49756;-69
2022/11/16 10:50:56;;;;;;;;;3.00;1.50;;;;;13.03;99.71;99467.44;6231305;22;49650;-69
2022/11/16 10:53:43;;;;;;;;;1.00;0.00;;;;;13.29;100.00;99519.88;6229924;22;49857;-71
2022/11/16 10:56:25;;;;;;;;;1.75;1.00;;;;;14.69;99.57;99714.50;6199352;22;49854;-71
2022/11/16 10:58:59;;;;;;;;;1.00;1.00;;;;;14.49;99.54;99664.56;6200037;22;49917;-79
2022/11/16 11:01:30;;;;;;;;;1.00;1.00;;;;;14.75;99.16;99696.78;6201229;22;49741;-76
2022/11/16 11:03:55;;;;;;;;;5.75;3.75;;;;;13.86;98.78;99567.63;6227249;22;51387;-75
2022/11/16 11:06:25;;;;;;;;;3.00;2.75;;;;;14.45;98.73;99636.44;6227770;22;49604;-76
2022/11/16 11:08:53;;;;;;;;;1.50;1.25;;;;;14.49;98.89;99635.53;6228864;22;50424;-79
2022/11/16 11:14:13;;;;;;;;;1.75;1.75;;;;;14.25;96.53;99560.09;6226389;22;49733;-76
2022/11/16 11:16:41;;;;;;;;;2.00;2.00;;;;;14.46;95.87;99598.56;6197572;22;49849;-76
2022/11/16 11:19:26;;;;;;;;;1.25;0.50;;;;;14.04;95.73;99521.69;6231993;22;49798;-79
2022/11/16 11:21:59;;;;;;;;;0.25;0.00;;;;;14.46;96.25;99580.97;6205692;22;50299;-78
2022/11/16 11:24:38;;;;;;;;;3.00;1.50;;;;;14.04;93.96;99508.47;6230317;22;50578;-84
2022/11/16 11:27:03;;;;;;;;;2.00;1.00;;;;;13.83;92.27;99437.53;6205703;22;50305;-79
2022/11/16 11:29:31;;;;;;;;;1.00;1.00;;;;;14.54;91.59;99550.03;6200272;22;49856;-80
2022/11/16 11:32:03;;;;;;;;;2.75;1.00;;;;;14.39;91.66;99499.22;6200799;22;49918;-80
2022/11/16 11:34:38;;;;;;;;;1.50;1.00;;;;;14.36;91.15;99494.81;6200929;22;52729;-80
2022/11/16 11:37:11;;;;;;;;;1.25;1.25;;;;;15.41;90.68;99667.63;6230382;22;49703;-81
2022/11/16 11:39:36;;;;;;;;;0.25;0.25;;;;;15.48;89.91;99649.00;6230583;22;49821;-72
2022/11/16 11:42:16;;;;;;;;;4.75;3.25;;;;;15.55;90.05;99648.88;6230217;22;50237;-84
2022/11/16 11:45:23;;;;;;;;;3.75;2.00;;;;;15.51;88.71;99633.94;6231333;22;49781;-81
2022/11/16 11:48:06;;;;;;;;;2.75;1.75;;;;;15.07;87.94;99540.41;6227643;22;50160;-84
2022/11/16 11:50:47;;;;;;;;;4.00;3.75;;;;;15.31;87.93;99562.03;6227505;22;49754;-80
2022/11/16 11:53:29;;;;;;;;;10.50;10.25;;;;;15.39;86.34;99586.56;6236471;22;49647;-82
2022/11/16 11:55:57;;;;;;;;;7.00;4.75;;;;;15.70;86.53;99637.19;6227270;22;49758;-71
2022/11/16 11:58:29;;;;;;;;;3.25;3.25;;;;;15.72;86.62;99643.31;6226808;22;50216;-70
2022/11/16 12:01:32;;;;;;;;;9.00;8.25;;;;;15.74;86.02;99638.91;6227651;22;49819;-70
2022/11/16 12:04:46;;;;;;;;;5.00;5.00;;;;;15.74;86.03;99623.03;6226670;22;49884;-72
2022/11/16 12:07:20;;;;;;;;;7.50;6.75;;;;;14.37;85.16;99409.44;6228645;22;50146;-69
2022/11/16 12:10:25;;;;;;;;;6.00;6.00;;;;;15.05;84.92;99530.75;6199732;22;50472;-73
2022/11/16 12:13:04;;;;;;;;;6.00;5.00;;;;;15.80;84.10;99619.38;6181146;22;49606;-73
2022/11/16 12:15:51;;;;;;;;;2.00;2.00;;;;;15.85;84.14;99628.09;6201221;22;49859;-74
2022/11/16 12:18:40;;;;;;;;;1.50;0.50;;;;;15.49;83.29;99555.53;6224099;22;50140;-73
2022/11/16 12:21:21;;;;;;;;;5.75;5.25;;;;;15.86;82.55;99611.31;6199302;22;49929;-74
2022/11/16 12:24:21;;;;;;;;;6.00;5.00;;;;;15.87;82.46;99605.13;6227105;22;50059;-75
2022/11/16 12:27:15;;;;;;;;;3.00;3.00;;;;;15.22;83.41;99489.03;6226596;22;49874;-70
2022/11/16 12:30:02;;;;;;;;;6.50;5.00;;;;;15.69;82.01;99572.81;6231248;22;50495;-81
2022/11/16 12:33:11;;;;;;;;;;;;;;;;;;;;;
2022/11/16 12:35:45;;;;;;;;;6.75;6.25;;;;;14.53;82.25;99403.06;6225235;22;72803;-77
2022/11/16 12:38:28;;;;;;;;;5.75;5.75;;;;;15.22;82.13;99475.81;6198317;22;50013;-79
2022/11/16 12:41:21;;;;;;;;;2.00;1.00;;;;;15.90;82.16;99586.53;6224902;22;49717;-76
2022/11/16 12:44:02;;;;;;;;;2.00;1.25;;;;;14.62;82.25;99407.31;6224325;22;49868;-76
2022/11/16 12:46:47;;;;;;;;;5.00;3.50;;;;;15.87;81.26;99582.19;6226071;22;49637;-74
2022/11/16 12:49:18;;;;;;;;;6.00;3.50;;;;;15.90;81.94;99582.09;6226669;22;49662;-74
2022/11/16 12:52:13;;;;;;;;;6.00;4.75;;;;;15.71;81.79;99549.84;6225262;22;49704;-74
2022/11/16 12:55:10;;;;;;;;;6.75;4.00;;;;;15.92;80.98;99580.34;6223344;22;49974;-72
2022/11/16 12:57:55;;;;;;;;;2.50;1.50;;;;;15.78;81.35;99553.25;6228481;22;49822;-72
2022/11/16 13:00:21;;;;;;;;;6.00;5.00;;;;;15.77;81.01;99577.09;6195767;22;50317;-73
2022/11/16 13:02:58;;;;;;;;;4.00;1.75;;;;;15.85;80.51;99578.69;6224888;22;50624;-73
2022/11/16 13:05:30;;;;;;;;;14.00;13.00;;;;;15.84;82.86;99584.91;6199058;22;49868;-69
2022/11/16 13:08:03;;;;;;;;;7.50;6.00;;;;;14.60;82.25;99372.16;6225900;22;50025;-84
2022/11/16 13:10:34;;;;;;;;;3.75;3.00;;;;;15.81;81.85;99578.78;6229692;22;50082;-69
2022/11/16 13:13:04;;;;;;;;;12.00;9.25;;;;;14.17;82.11;99306.81;6222008;22;50129;-71
2022/11/16 13:15:37;;;;;;;;;2.75;2.75;;;;;15.44;81.76;99508.91;6189015;22;49802;-72
2022/11/16 13:18:07;;;;;;;;;7.50;3.00;;;;;14.90;81.62;99407.69;6231261;22;49523;-73
2022/11/16 13:20:55;;;;;;;;;6.00;4.50;;;;;15.77;82.36;99559.44;6234054;22;49538;-73
2022/11/16 13:23:40;;;;;;;;;2.75;2.75;;;;;15.80;81.76;99550.56;6167635;22;49599;-72
2022/11/16 13:26:34;;;;;;;;;8.50;4.00;;;;;15.58;82.30;99487.47;6239329;22;49439;-71
2022/11/16 13:29:29;;;;;;;;;5.50;5.25;;;;;15.81;81.85;99526.72;6239518;22;49414;-72
2022/11/16 13:32:01;;;;;;;;;1.25;1.25;;;;;15.80;82.27;99524.97;6238949;22;49316;-72
2022/11/16 13:34:33;;;;;;;;;7.00;3.50;;;;;15.78;81.98;99524.13;6240609;22;50560;-70
2022/11/16 13:36:58;;;;;;;;;3.25;2.50;;;;;15.61;81.94;99481.28;6226424;22;49861;-73
2022/11/16 13:40:08;;;;;;;;;5.00;3.00;;;;;15.78;82.76;99495.03;6231988;22;49714;-71
2022/11/16 13:42:37;;;;;;;;;4.00;3.00;;;;;15.79;81.90;99483.53;6240135;22;49223;-73
2022/11/16 13:45:22;;;;;;;;;4.50;1.50;;;;;15.77;82.75;99477.41;6240026;22;50452;-75
2022/11/16 13:47:53;;;;;;;;;8.00;4.00;;;;;15.59;82.81;99462.75;6239634;22;49748;-71
2022/11/16 13:50:23;;;;;;;;;5.75;2.75;;;;;15.63;83.12;99471.53;6227472;22;50086;-70
2022/11/16 13:52:56;;;;;;;;;4.50;3.00;;;;;14.75;84.15;99377.13;6227208;22;50119;-72
2022/11/16 13:55:31;;;;;;;;;2.00;2.00;;;;;15.51;84.50;99472.63;6234404;22;50297;-72
2022/11/16 13:57:59;;;;;;;;;3.25;2.00;;;;;15.70;84.98;99496.97;6240652;22;50304;-71
2022/11/16 14:00:29;;;;;;;;;2.25;2.25;;;;;15.35;85.19;99452.69;6238270;22;50117;-72
2022/11/16 14:03:16;;;;;;;;;1.25;1.25;;;;;15.64;86.39;99505.03;6241498;22;49490;-70
2022/11/16 14:05:46;;;;;;;;;1.50;1.00;;;;;14.52;86.54;99316.81;6241022;22;51557;-71
2022/11/16 14:08:18;;;;;;;;;2.00;2.00;;;;;15.54;87.41;99482.25;6238308;22;50225;-71
2022/11/16 14:10:46;;;;;;;;;1.00;1.00;;;;;15.46;87.95;99493.00;6240426;22;49515;-72
2022/11/16 14:13:38;;;;;;;;;3.00;2.25;;;;;15.41;89.00;99473.69;6241360;22;49420;-73
2022/11/16 14:16:16;;;;;;;;;3.00;2.00;;;;;15.39;90.34;99468.44;6239480;22;50659;-74
2022/11/16 14:18:44;;;;;;;;;3.00;2.25;;;;;15.32;92.41;99469.44;6233473;22;49661;-73
2022/11/16 14:21:19;;;;;;;;;3.50;2.25;;;;;15.29;93.42;99469.53;6232049;22;50082;-73
2022/11/16 14:23:51;;;;;;;;;3.00;2.50;;;;;15.22;94.91;99452.03;6231807;22;49733;-73
2022/11/16 14:26:21;;;;;;;;;4.50;2.00;;;;;15.23;95.87;99453.75;6229230;22;49849;-72
2022/11/16 14:29:02;;;;;;;;;2.00;2.00;;;;;15.14;96.25;99449.50;6217880;22;49979;-77
2022/11/16 14:31:45;;;;;;;;;3.00;1.00;;;;;13.71;97.70;99224.97;6226548;22;49642;-71
2022/11/16 14:34:16;;;;;;;;;0.75;0.75;;;;;14.96;99.40;99406.69;6228272;22;49968;-71
2022/11/16 14:36:44;;;;;;;;;2.75;2.75;;;;;15.04;100.00;99436.50;6235253;22;50603;-71
2022/11/16 14:39:23;;;;;;;;;3.25;2.00;;;;;15.04;100.00;99429.44;6241281;22;49296;-70
2022/11/16 14:41:50;;;;;;;;;4.00;3.25;;;;;14.99;100.00;99422.53;6240565;22;49508;-75
2022/11/16 14:44:23;;;;;;;;;6.50;1.25;;;;;14.97;100.00;99416.41;6229614;22;49659;-75
2022/11/16 14:46:50;;;;;;;;;3.50;3.00;;;;;14.71;100.00;99370.19;6227395;22;49823;-75
2022/11/16 14:49:19;;;;;;;;;4.75;3.50;;;;;14.83;100.00;99414.84;6226724;22;49708;-70
2022/11/16 14:51:48;;;;;;;;;4.00;3.00;;;;;14.80;100.00;99401.72;6226750;22;50014;-72
2022/11/16 14:54:31;;;;;;;;;2.25;1.00;;;;;14.77;100.00;99395.63;6228230;22;49876;-74
2022/11/16 14:57:03;;;;;;;;;3.75;3.75;;;;;14.66;100.00;99381.72;6227975;22;49550;-70
2022/11/16 14:59:35;;;;;;;;;7.00;5.25;;;;;14.42;100.00;99348.66;6222718;22;50112;-70
2022/11/16 15:02:18;;;;;;;;;3.00;3.00;;;;;14.53;100.00;99368.72;6228842;22;49748;-70
2022/11/16 15:04:47;;;;;;;;;3.75;3.75;;;;;14.44;100.00;99370.63;6235856;22;49703;-71
2022/11/16 15:07:14;;;;;;;;;3.75;3.75;;;;;14.44;100.00;99375.91;6235713;22;50480;-74
2022/11/16 15:09:46;;;;;;;;;3.00;3.00;;;;;14.45;100.00;99377.69;6178658;22;50193;-74
2022/11/16 15:15:18;;;;;;;;;3.75;3.50;;;;;14.01;100.00;99310.63;6226593;22;49898;-71
2022/11/16 15:17:51;;;;;;;;;3.25;3.25;;;;;14.01;100.00;99305.38;6225965;22;50507;-71
2022/11/16 15:20:22;;;;;;;;;7.75;3.25;;;;;14.16;100.00;99317.41;6227678;22;49642;-73
2022/11/16 15:22:52;;;;;;;;;3.50;3.50;;;;;14.02;100.00;99293.91;6226130;22;49889;-71
2022/11/16 15:25:33;;;;;;;;;4.50;4.50;;;;;13.43;100.00;99188.50;6227577;22;49837;-71
2022/11/16 15:28:05;;;;;;;;;3.00;1.00;;;;;12.42;100.00;99028.44;6226088;22;50634;-72
2022/11/16 15:30:35;;;;;;;;;5.25;3.50;;;;;13.74;100.00;99240.72;6225855;22;49760;-73
2022/11/16 15:33:07;;;;;;;;;5.25;2.50;;;;;13.99;100.00;99281.66;6226592;22;49720;-72
2022/11/16 15:35:34;;;;;;;;;4.75;4.00;;;;;13.69;100.00;99245.19;6226735;22;50058;-72
2022/11/16 15:38:10;;;;;;;;;2.50;1.50;;;;;13.92;100.00;99260.66;6227103;22;50157;-72
2022/11/16 15:40:36;;;;;;;;;5.25;3.50;;;;;13.67;100.00;99224.13;6226450;22;49800;-71
2022/11/16 15:43:04;;;;;;;;;4.00;4.00;;;;;13.84;100.00;99250.22;6227391;22;50017;-71
2022/11/16 15:45:31;;;;;;;;;8.00;4.00;;;;;13.91;100.00;99259.78;6227109;22;49814;-72
2022/11/16 15:48:00;;;;;;;;;5.25;4.50;;;;;13.86;100.00;99251.06;6227839;22;49641;-72
2022/11/16 15:50:26;;;;;;;;;8.25;5.50;;;;;13.11;100.00;99115.16;6227255;22;49695;-71
2022/11/16 15:52:58;;;;;;;;;3.00;3.00;;;;;13.55;100.00;99170.72;6204518;22;50379;-72
2022/11/16 15:55:38;;;;;;;;;5.00;3.75;;;;;13.88;100.00;99240.50;6205227;22;49763;-73
2022/11/16 15:58:26;;;;;;;;;7.75;4.50;;;;;13.68;100.00;99196.84;6235228;22;49802;-74
2022/11/16 16:00:52;;;;;;;;;5.75;3.00;;;;;13.83;100.00;99226.53;6235806;22;49810;-71
2022/11/16 16:03:25;;;;;;;;;4.50;3.00;;;;;13.85;100.00;99217.69;6235907;22;49562;-71
2022/11/16 16:05:51;;;;;;;;;2.50;2.50;;;;;13.85;100.00;99199.22;6235904;22;49726;-71
2022/11/16 16:08:24;;;;;;;;;4.50;3.00;;;;;13.81;100.00;99197.53;6235459;22;50333;-73
2022/11/16 16:11:01;;;;;;;;;3.75;2.00;;;;;13.75;100.00;99177.41;6235516;22;49621;-71
2022/11/16 16:13:33;;;;;;;;;5.25;4.00;;;;;13.82;100.00;99179.94;6235269;22;49943;-71
2022/11/16 16:16:25;;;;;;;;;4.50;2.75;;;;;13.79;100.00;99170.28;6235939;22;49735;-72
2022/11/16 16:18:53;;;;;;;;;9.00;5.25;;;;;13.74;100.00;99178.31;6234669;22;49800;-72
2022/11/16 16:21:19;;;;;;;;;3.00;3.00;;;;;13.63;100.00;99164.44;6234914;22;49618;-72
2022/11/16 16:23:53;;;;;;;;;3.25;2.00;;;;;13.64;100.00;99162.66;6207028;22;49936;-72
2022/11/16 16:26:20;;;;;;;;;4.50;4.50;;;;;13.66;100.00;99153.81;6234743;22;50068;-72
2022/11/16 16:28:45;;;;;;;;;4.50;3.00;;;;;13.68;100.00;99161.72;6235605;22;49508;-75
2022/11/16 16:31:11;;;;;;;;;7.25;5.00;;;;;13.67;100.00;99152.06;6235655;22;49519;-75
2022/11/16 16:33:37;;;;;;;;;5.00;3.00;;;;;13.11;100.00;99059.81;6234288;22;49755;-76
2022/11/16 16:36:03;;;;;;;;;4.00;4.00;;;;;13.67;100.00;99160.84;6235661;22;49622;-76
2022/11/16 16:38:29;;;;;;;;;4.00;2.75;;;;;13.62;100.00;99135.47;6235170;22;50399;-75
2022/11/16 16:41:03;;;;;;;;;5.75;4.00;;;;;13.58;100.00;99134.63;6234780;22;49745;-75
2022/11/16 16:43:33;;;;;;;;;3.50;3.50;;;;;13.61;100.00;99126.69;6245526;22;49748;-74
2022/11/16 16:46:03;;;;;;;;;3.25;3.25;;;;;13.62;100.00;99120.50;6235240;22;49769;-75
2022/11/16 16:48:29;;;;;;;;;4.00;4.00;;;;;13.58;100.00;99110.91;6235391;22;49740;-76
2022/11/16 16:50:54;;;;;;;;;2.25;2.00;;;;;13.10;100.00;99017.72;6234239;22;49942;-75
2022/11/16 16:53:20;;;;;;;;;2.50;2.50;;;;;13.42;100.00;99083.94;6234518;22;50078;-77
2022/11/16 16:55:46;;;;;;;;;3.75;3.00;;;;;13.24;100.00;99050.00;6235336;22;49764;-77
2022/11/16 16:58:13;;;;;;;;;12.25;5.75;;;;;13.14;100.00;99056.31;6232455;22;49782;-76
2022/11/16 17:00:39;;;;;;;;;4.25;4.00;;;;;13.03;100.00;99034.53;6233036;22;49643;-75
2022/11/16 17:03:05;;;;;;;;;5.00;3.75;;;;;13.02;100.00;99023.09;6232878;22;49980;-76
2022/11/16 17:05:34;;;;;;;;;3.75;3.00;;;;;13.47;100.00;99112.84;6233333;22;49538;-76
2022/11/16 17:07:59;;;;;;;;;3.00;2.00;;;;;12.67;100.00;98959.63;6234083;22;49740;-75
2022/11/16 17:10:25;;;;;;;;;5.00;5.00;;;;;13.51;100.00;99089.94;6233347;22;49767;-76
2022/11/16 17:12:55;;;;;;;;;4.50;3.00;;;;;13.17;100.00;99028.13;6236160;22;49965;-76
2022/11/16 17:15:21;;;;;;;;;3.25;3.25;;;;;13.48;100.00;99074.19;6236139;22;49531;-76
2022/11/16 17:17:47;;;;;;;;;2.75;2.75;;;;;13.51;100.00;99055.66;6234867;22;50055;-76
2022/11/16 17:20:12;;;;;;;;;4.75;4.00;;;;;13.52;100.00;99060.94;6232354;22;49844;-76
2022/11/16 17:22:40;;;;;;;;;7.25;4.75;;;;;13.26;100.00;99016.59;6232955;22;49629;-76
2022/11/16 17:25:06;;;;;;;;;3.75;3.75;;;;;13.51;100.00;99035.47;6235213;22;50057;-76
2022/11/16 17:27:31;;;;;;;;;4.25;4.25;;;;;13.48;100.00;99037.28;6235456;22;49671;-76
2022/11/16 17:29:57;;;;;;;;;3.50;3.00;;;;;13.51;100.00;99038.13;6237029;22;49751;-76
2022/11/16 17:32:22;;;;;;;;;2.25;2.25;;;;;13.26;100.00;98984.97;6235083;22;49636;-77
2022/11/16 17:34:48;;;;;;;;;4.50;3.25;;;;;13.43;100.00;99013.66;6235337;22;49669;-77
2022/11/16 17:37:13;;;;;;;;;5.25;4.00;;;;;13.48;100.00;99021.47;6234998;22;49822;-77
2022/11/16 17:39:39;;;;;;;;;4.75;4.75;;;;;13.33;100.00;99007.69;6234435;22;49661;-77
2022/11/16 17:42:04;;;;;;;;;4.00;4.00;;;;;13.43;100.00;98988.16;6235665;22;49906;-73
2022/11/16 17:44:30;;;;;;;;;3.00;3.00;;;;;13.39;100.00;98981.19;6235532;22;49713;-77
2022/11/16 17:46:56;;;;;;;;;2.75;2.75;;;;;13.08;100.00;98922.91;6234802;22;49828;-79
2022/11/16 17:49:22;;;;;;;;;3.00;3.00;;;;;13.37;100.00;98988.28;6235245;22;49998;-77
2022/11/16 17:51:47;;;;;;;;;7.00;4.75;;;;;12.49;100.00;98837.09;6235191;22;50104;-77
2022/11/16 17:54:13;;;;;;;;;6.75;6.75;;;;;13.33;100.00;98969.91;6234934;22;50014;-77
2022/11/16 17:56:39;;;;;;;;;5.75;5.00;;;;;12.97;100.00;98929.28;6235372;22;49891;-78
2022/11/16 17:59:04;;;;;;;;;4.00;3.00;;;;;13.38;100.00;98952.25;6237119;22;49692;-76
2022/11/16 18:01:30;;;;;;;;;3.00;3.00;;;;;13.11;100.00;98925.47;6237174;22;49817;-75
2022/11/16 18:03:56;;;;;;;;;6.00;4.25;;;;;12.74;100.00;98879.63;6236885;22;49740;-74
2022/11/16 18:06:23;;;;;;;;;3.00;3.00;;;;;12.89;100.00;98893.41;6236412;22;50323;-78
2022/11/16 18:08:49;;;;;;;;;3.25;3.25;;;;;13.36;100.00;98954.91;6237374;22;49594;-73
2022/11/16 18:11:20;;;;;;;;;7.50;4.00;;;;;13.26;100.00;98905.91;6236915;22;49765;-73
2022/11/16 18:13:46;;;;;;;;;5.25;4.75;;;;;13.38;100.00;98915.34;6236906;22;50017;-73
2022/11/16 18:16:17;;;;;;;;;3.25;2.00;;;;;12.90;100.00;98836.34;6236787;22;49792;-75
2022/11/16 18:18:44;;;;;;;;;3.75;3.50;;;;;13.31;100.00;98901.41;6236227;22;49999;-75
2022/11/16 18:21:10;;;;;;;;;4.75;4.75;;;;;12.98;100.00;98837.06;6236824;22;49653;-74
2022/11/16 18:23:36;;;;;;;;;4.00;4.00;;;;;13.22;100.00;98896.34;6237074;22;49838;-73
2022/11/16 18:26:10;;;;;;;;;3.00;2.25;;;;;13.05;100.00;98850.97;6235757;22;49773;-74
2022/11/16 18:28:35;;;;;;;;;4.00;3.00;;;;;13.25;100.00;98883.09;6234917;22;49551;-79
2022/11/16 18:31:05;;;;;;;;;2.75;2.75;;;;;13.22;100.00;98872.63;6235114;22;49805;-74
2022/11/16 18:33:31;;;;;;;;;3.00;3.00;;;;;13.16;100.00;98857.78;6238738;22;49881;-72
2022/11/16 18:35:57;;;;;;;;;4.50;2.25;;;;;13.23;100.00;98861.19;6235323;22;50351;-74
2022/11/16 18:38:22;;;;;;;;;5.25;4.50;;;;;13.18;100.00;98841.94;6208158;22;50134;-73